• Join FlightAware (Why Join?)
  • Login
  • US Flag GB Flag 
14:34 EDT


 

Airport Tracker/Info


-or-


 

Live Flight TrackerFlight Track Log ✈ DAL6034 ✈ 19-Apr-2013 ✈ KLGA - KMHT

Flight Track Log - Related Links

Times and Time Zones

All times are in EDT time to prevent confusion due to time zone crossing. See the DAL6034 flight status page for this flight to view local times or setup timezone preferences in your user account.

Time Position Orientation Groundspeed Altitude Reporting Facility
EDT Latitude Longitude Course Direction KTS MPH feet Rate Location/Type
16:44 40.7667 -73.8500 27° Northeast 168 193 900  Level New York TRACON
16:45 40.7667 -73.7833 90° East 247 284 3,200 2,100 Climbing New York TRACON
16:46 40.8500 -73.7167 31° Northeast 288 331 5,300 2,100 Climbing New York TRACON
16:47 40.9167 -73.6667 30° Northeast 313 360 7,500 2,220 Climbing New York TRACON
16:48 41.2370 -73.4927 33° Northeast  Level FlightAware Approximate
16:48 41.0000 -73.6000 31° Northeast 323 372 9,800  Level New York TRACON
16:49 41.3333 -73.4223 27° Northeast  Level FlightAware Approximate
16:50 41.1200 -73.5036 31° Northeast 369 425 11,800  Level Boston Center
16:51 41.2144 -73.4197 34° Northeast 369 425 13,500 1,320 Climbing Boston Center
16:52 41.2964 -73.3464 34° Northeast 383 441 14,500 1,200 Climbing Boston Center
16:53 41.3928 -73.2647 32° Northeast 402 463 16,000 1,260 Climbing Boston Center
16:54 41.4978 -73.1717 34° Northeast 402 463 17,000 540 Climbing Boston Center
16:55 41.5919 -73.0953 31° Northeast 428 493 17,100  Climbing Boston Center
16:56 41.7406 -72.9967 26° Northeast 455 524 17,000 -60 Descending Boston Center
16:57 41.8428 -72.9278 27° Northeast 455 524 17,000  Level Boston Center
16:58 41.9558 -72.8533 26° Northeast 450 518 17,000 -60 Level Boston Center
16:59 42.0706 -72.7786 26° Northeast 450 518 16,900  Descending Boston Center
17:00 42.1958 -72.6950 26° Northeast 450 518 17,000  Climbing Boston Center
17:01 42.3064 -72.6197 27° Northeast 444 511 16,900 -60 Descending Boston Center
17:02 42.4044 -72.5553 26° Northeast 415 478 16,900 -600 Level Boston Center
17:03 42.4983 -72.4936 26° Northeast 386 444 15,800 -1,560 Descending Boston Center
17:04 42.5942 -72.4289 26° Northeast 375 432 13,900 -1,740 Descending Boston Center
17:05 42.6900 -72.3694 25° Northeast 375 432 12,400 -1,380 Descending Boston Center
17:06 42.7714 -72.3128 27° Northeast 355 409 11,200 -1,260 Descending Boston Center
17:07 42.8044 -72.2081 67° East 287 330 9,900 -1,140 Descending Boston Center
17:08 42.8125 -72.1117 83° East 293 337 9,000 -660 Descending Boston Center
17:09 42.8350 -71.9758 77° East 309 356 8,700 -840 Descending Boston Center
17:10 42.8908 -71.8961 46° Northeast 309 356 7,400 -1,440 Descending Boston Center
17:11 42.9489 -71.8019 50° Northeast 292 336 5,900 -1,440 Descending Boston Center
17:12 43.0111 -71.7500 31° Northeast 281 323 4,500 -960 Descending Boston Center
17:13 43.0900 -71.7150 18° North 275 316 4,000 -720 Descending Boston Center
17:14 43.1356 -71.6661 38° Northeast 223 257 3,000 -540 Descending Boston Center
17:15 43.1500 -71.5833 77° East 235 270 3,100 60 Climbing KA90
17:16 43.1167 -71.5333 132° Southeast 184 212 3,100 -120 Level KA90
17:16 43.0969 -71.5331 179° South 155 178 3,000 -180 Descending Boston Center
17:17 43.0614 -71.5108 155° Southeast 155 178 2,900 -120 Descending Boston Center